Time;durP1;ratioP1;P1;durP2;ratioP2;P2;SDS_P1;SDS_P2;PMS_P1;PMS_P2;Temp;Humidity;BMP_temperature;BMP_pressure;BME280_temperature;BME280_humidity;BME280_pressure;Samples;Min_cycle;Max_cycle;Signal;HPM_P1;HPM_P2
2022/10/17 00:01:09;;;;;;;;;;;18.40;63.90;;;;;;4987986;28;19922;-88
2022/10/17 00:03:35;;;;;;;;;;;18.40;64.00;;;;;;4987706;28;20372;-87
2022/10/17 00:06:09;;;;;;;;;;;18.40;64.10;;;;;;4989222;28;19933;-87
2022/10/17 00:08:35;;;;;;;;;;;18.40;64.40;;;;;;4990795;28;19914;-87
2022/10/17 00:11:05;;;;;;;;;;;18.50;64.60;;;;;;4991359;28;19996;-87
2022/10/17 00:13:31;;;;;;;;;;;18.40;64.70;;;;;;4989939;28;19914;-86
2022/10/17 00:15:57;;;;;;;;;;;18.50;64.70;;;;;;4960514;28;20012;-86
2022/10/17 00:18:22;;;;;;;;;;;18.50;64.80;;;;;;4968676;28;20416;-87
2022/10/17 00:20:48;;;;;;;;;;;18.50;65.10;;;;;;4989444;28;19926;-87
2022/10/17 00:23:14;;;;;;;;;;;18.60;65.00;;;;;;4988086;28;19921;-86
2022/10/17 00:25:39;;;;;;;;;;;18.60;64.90;;;;;;4989477;28;20471;-86
2022/10/17 00:28:07;;;;;;;;;;;18.60;64.80;;;;;;4960327;28;20324;-86
2022/10/17 00:30:33;;;;;;;;;;;18.60;64.90;;;;;;4990164;28;19971;-88
2022/10/17 00:32:58;;;;;;;;;;;18.60;65.00;;;;;;4991032;28;20387;-87
2022/10/17 00:35:24;;;;;;;;;;;18.60;64.80;;;;;;4991107;28;20054;-88
2022/10/17 00:37:49;;;;;;;;;;;18.70;64.80;;;;;;4991059;28;19914;-87
2022/10/17 00:40:15;;;;;;;;;;;18.60;64.70;;;;;;4992314;28;20542;-88
2022/10/17 00:42:40;;;;;;;;;;;18.70;64.90;;;;;;4974247;28;19952;-88
2022/10/17 00:45:19;;;;;;;;;;;18.60;64.80;;;;;;4971379;28;20000;-88
2022/10/17 00:47:46;;;;;;;;;;;18.70;64.60;;;;;;4972699;28;19922;-87
2022/10/17 00:50:12;;;;;;;;;;;18.70;64.50;;;;;;4987375;28;20581;-87
2022/10/17 00:52:37;;;;;;;;;;;18.60;64.40;;;;;;4990556;28;19914;-87
2022/10/17 00:55:09;;;;;;;;;;;18.60;64.30;;;;;;4988699;28;20109;-87
2022/10/17 00:57:35;;;;;;;;;;;18.60;64.30;;;;;;4964240;28;19914;-86
2022/10/17 01:00:03;;;;;;;;;;;18.60;64.30;;;;;;4989123;28;19929;-88
2022/10/17 01:02:28;;;;;;;;;;;18.50;64.30;;;;;;4990538;28;19960;-85
2022/10/17 01:04:55;;;;;;;;;;;18.60;64.40;;;;;;4991998;28;19965;-87
2022/10/17 01:07:21;;;;;;;;;;;18.50;64.50;;;;;;4992020;28;19914;-88
2022/10/17 01:09:47;;;;;;;;;;;18.50;64.50;;;;;;4993203;28;19925;-86
2022/10/17 01:12:16;;;;;;;;;;;18.50;64.40;;;;;;4967937;28;19933;-88
2022/10/17 01:14:53;;;;;;;;;;;18.50;64.30;;;;;;4971186;28;20403;-87
2022/10/17 01:17:25;;;;;;;;;;;18.50;64.40;;;;;;4972051;28;19918;-86
2022/10/17 01:19:53;;;;;;;;;;;18.50;64.50;;;;;;4990996;28;19965;-87
2022/10/17 01:22:38;;;;;;;;;;;18.50;64.70;;;;;;4991517;28;19925;-88
2022/10/17 01:25:22;;;;;;;;;;;18.50;64.70;;;;;;4962509;28;20000;-87
2022/10/17 01:28:11;;;;;;;;;;;18.50;64.70;;;;;;4975199;28;20365;-87
2022/10/17 01:30:48;;;;;;;;;;;18.50;64.70;;;;;;4992514;28;20089;-86
2022/10/17 01:33:17;;;;;;;;;;;18.50;64.70;;;;;;4971581;28;19956;-87
2022/10/17 01:35:57;;;;;;;;;;;18.50;64.70;;;;;;4993888;28;20361;-85
2022/10/17 01:38:30;;;;;;;;;;;18.50;64.60;;;;;;4994522;28;19914;-87
2022/10/17 01:41:01;;;;;;;;;;;18.50;64.50;;;;;;4977164;28;19926;-88
2022/10/17 01:43:38;;;;;;;;;;;18.50;64.50;;;;;;4980716;28;19934;-86
2022/10/17 01:46:09;;;;;;;;;;;18.50;64.40;;;;;;4994911;28;20289;-87
2022/10/17 01:48:35;;;;;;;;;;;18.50;64.50;;;;;;4994287;28;19924;-87
2022/10/17 01:51:05;;;;;;;;;;;18.50;64.60;;;;;;4993008;28;19961;-87
2022/10/17 01:53:32;;;;;;;;;;;18.40;64.50;;;;;;4994456;28;20361;-87
2022/10/17 01:55:59;;;;;;;;;;;18.50;64.50;;;;;;4976571;28;19972;-86
2022/10/17 01:58:42;;;;;;;;;;;18.50;64.50;;;;;;4992790;28;19924;-86
2022/10/17 02:01:09;;;;;;;;;;;18.50;64.50;;;;;;4976460;28;19936;-87
2022/10/17 02:03:35;;;;;;;;;;;18.50;64.60;;;;;;4994281;28;20355;-87
2022/10/17 02:06:00;;;;;;;;;;;18.40;64.60;;;;;;4966919;28;19937;-87
2022/10/17 02:08:27;;;;;;;;;;;18.40;64.40;;;;;;4969774;28;20033;-85
2022/10/17 02:10:52;;;;;;;;;;;18.40;64.50;;;;;;4993976;28;20412;-87
2022/10/17 02:13:26;;;;;;;;;;;18.40;64.40;;;;;;4992816;28;19926;-86
2022/10/17 02:16:10;;;;;;;;;;;18.40;64.30;;;;;;4991762;28;19965;-87
2022/10/17 02:18:45;;;;;;;;;;;18.40;64.30;;;;;;4991125;28;19976;-87
2022/10/17 02:21:13;;;;;;;;;;;18.40;64.30;;;;;;4990096;28;19967;-86
2022/10/17 02:23:54;;;;;;;;;;;18.40;64.40;;;;;;4989112;28;19918;-87
2022/10/17 02:26:24;;;;;;;;;;;18.40;64.70;;;;;;4964575;28;19934;-86
2022/10/17 02:28:50;;;;;;;;;;;18.40;64.80;;;;;;4974909;28;19952;-87
2022/10/17 02:31:19;;;;;;;;;;;18.40;64.80;;;;;;4991557;28;19953;-87
2022/10/17 02:33:55;;;;;;;;;;;18.50;64.80;;;;;;4992815;28;19945;-87
2022/10/17 02:36:24;;;;;;;;;;;18.50;64.90;;;;;;4957559;28;21259;-88
2022/10/17 02:38:50;;;;;;;;;;;18.50;65.00;;;;;;4968996;28;19945;-87
2022/10/17 02:41:17;;;;;;;;;;;18.50;65.30;;;;;;4990203;28;19964;-87
2022/10/17 02:43:44;;;;;;;;;;;18.50;65.30;;;;;;4963860;28;19914;-88
2022/10/17 02:46:10;;;;;;;;;;;18.60;65.60;;;;;;4958560;28;20021;-86
2022/10/17 02:48:37;;;;;;;;;;;18.60;65.60;;;;;;4990930;28;19952;-86
2022/10/17 02:51:13;;;;;;;;;;;18.60;65.60;;;;;;4981508;28;19915;-86
2022/10/17 02:53:45;;;;;;;;;;;18.70;65.50;;;;;;4974109;28;19914;-87
2022/10/17 02:56:15;;;;;;;;;;;18.70;65.40;;;;;;4992089;28;19972;-87
2022/10/17 02:58:41;;;;;;;;;;;18.70;65.30;;;;;;4975616;28;19914;-88
2022/10/17 03:01:07;;;;;;;;;;;18.70;65.10;;;;;;4992455;28;19925;-86
2022/10/17 03:03:32;;;;;;;;;;;18.70;65.10;;;;;;4994874;28;19916;-87
2022/10/17 03:05:58;;;;;;;;;;;18.70;65.00;;;;;;4975770;28;20008;-87
2022/10/17 03:08:24;;;;;;;;;;;18.70;65.00;;;;;;4976582;28;19937;-87
2022/10/17 03:10:49;;;;;;;;;;;18.70;65.00;;;;;;4992517;28;19964;-87
2022/10/17 03:13:16;;;;;;;;;;;18.70;65.00;;;;;;4975159;28;19913;-86
2022/10/17 03:15:41;;;;;;;;;;;18.70;65.00;;;;;;4993552;28;20062;-87
2022/10/17 03:18:07;;;;;;;;;;;18.70;65.00;;;;;;4976724;28;19909;-87
2022/10/17 03:20:33;;;;;;;;;;;18.60;65.00;;;;;;4992642;28;19952;-88
2022/10/17 03:22:58;;;;;;;;;;;18.60;64.80;;;;;;4976684;28;19914;-88
2022/10/17 03:25:24;;;;;;;;;;;18.60;64.70;;;;;;4989932;28;19925;-88
2022/10/17 03:27:50;;;;;;;;;;;18.60;64.70;;;;;;4964958;28;20370;-87
2022/10/17 03:30:16;;;;;;;;;;;18.60;64.70;;;;;;4989418;28;19968;-86
2022/10/17 03:32:41;;;;;;;;;;;18.50;64.70;;;;;;4989989;28;19914;-87
2022/10/17 03:35:07;;;;;;;;;;;18.50;64.70;;;;;;4989846;28;20377;-88
2022/10/17 03:37:32;;;;;;;;;;;18.50;64.70;;;;;;4992176;28;19914;-86
2022/10/17 03:39:58;;;;;;;;;;;18.50;64.90;;;;;;4992793;28;19917;-86
2022/10/17 03:42:23;;;;;;;;;;;18.50;64.80;;;;;;4976169;28;19917;-87
2022/10/17 03:44:49;;;;;;;;;;;18.50;65.00;;;;;;4991416;28;19917;-87
2022/10/17 03:47:14;;;;;;;;;;;18.50;65.00;;;;;;4973902;28;19914;-86
2022/10/17 03:49:40;;;;;;;;;;;18.50;65.00;;;;;;4973621;28;19914;-87
2022/10/17 03:52:05;;;;;;;;;;;18.50;65.20;;;;;;4991281;28;19918;-87
2022/10/17 03:54:31;;;;;;;;;;;18.40;65.10;;;;;;4994322;28;19952;-86
2022/10/17 03:56:56;;;;;;;;;;;18.50;65.10;;;;;;4973561;28;19933;-88
2022/10/17 03:59:22;;;;;;;;;;;18.40;65.00;;;;;;4990692;28;20289;-87
2022/10/17 04:01:47;;;;;;;;;;;18.40;64.90;;;;;;4992761;28;19922;-86
2022/10/17 04:04:13;;;;;;;;;;;18.40;65.00;;;;;;4973455;28;20481;-87
2022/10/17 04:06:38;;;;;;;;;;;18.40;65.00;;;;;;4990700;28;19921;-87
2022/10/17 04:09:05;;;;;;;;;;;18.40;65.00;;;;;;4974160;28;20687;-85
2022/10/17 04:11:31;;;;;;;;;;;18.40;65.00;;;;;;4990330;28;19926;-85
2022/10/17 04:13:58;;;;;;;;;;;18.40;65.10;;;;;;4990622;28;19916;-87
2022/10/17 04:16:24;;;;;;;;;;;18.50;65.10;;;;;;4976552;28;19928;-87
2022/10/17 04:18:57;;;;;;;;;;;18.40;65.00;;;;;;4991011;28;20407;-87
2022/10/17 04:21:23;;;;;;;;;;;18.40;64.90;;;;;;4991373;28;19972;-87
2022/10/17 04:23:56;;;;;;;;;;;18.40;64.90;;;;;;4973118;28;19918;-87
2022/10/17 04:26:22;;;;;;;;;;;18.40;65.00;;;;;;4991332;28;19953;-88
2022/10/17 04:28:48;;;;;;;;;;;18.40;65.00;;;;;;4990718;28;20392;-87
2022/10/17 04:31:13;;;;;;;;;;;18.40;64.80;;;;;;4990454;28;20368;-86
2022/10/17 04:33:39;;;;;;;;;;;18.40;64.80;;;;;;4990198;28;19984;-86
2022/10/17 04:36:05;;;;;;;;;;;18.30;64.70;;;;;;4968848;28;19917;-87
2022/10/17 04:38:31;;;;;;;;;;;18.30;64.60;;;;;;4974447;28;19910;-87
2022/10/17 04:40:57;;;;;;;;;;;18.30;64.70;;;;;;4990102;28;19952;-86
2022/10/17 04:43:23;;;;;;;;;;;18.30;64.70;;;;;;4964193;28;19936;-87
2022/10/17 04:45:48;;;;;;;;;;;18.30;64.70;;;;;;4962284;28;19922;-86
2022/10/17 04:48:14;;;;;;;;;;;18.30;64.90;;;;;;4988088;28;19968;-86
2022/10/17 04:50:39;;;;;;;;;;;18.30;64.90;;;;;;4989202;28;19969;-87
2022/10/17 04:53:05;;;;;;;;;;;18.30;64.80;;;;;;4987506;28;19914;-87
2022/10/17 04:55:30;;;;;;;;;;;18.30;64.70;;;;;;4988780;28;19918;-88
2022/10/17 04:57:56;;;;;;;;;;;18.30;64.80;;;;;;4960947;28;19952;-85
2022/10/17 05:00:21;;;;;;;;;;;18.30;64.70;;;;;;4984127;28;20520;-87
2022/10/17 05:02:47;;;;;;;;;;;18.30;64.70;;;;;;4967290;28;19924;-88
2022/10/17 05:05:13;;;;;;;;;;;18.30;64.70;;;;;;4968247;28;19922;-88
2022/10/17 05:07:39;;;;;;;;;;;18.30;64.70;;;;;;4987025;28;20488;-88
2022/10/17 05:10:05;;;;;;;;;;;18.30;64.80;;;;;;4989665;28;20008;-87
2022/10/17 05:12:31;;;;;;;;;;;18.30;64.80;;;;;;4964915;28;20526;-87
2022/10/17 05:14:57;;;;;;;;;;;18.30;64.70;;;;;;4988075;28;19949;-86
2022/10/17 05:17:22;;;;;;;;;;;18.30;64.60;;;;;;4986125;28;20429;-87
2022/10/17 05:19:48;;;;;;;;;;;18.30;64.60;;;;;;4966015;28;20621;-88
2022/10/17 05:22:13;;;;;;;;;;;18.30;64.40;;;;;;4988773;28;20072;-87
2022/10/17 05:24:43;;;;;;;;;;;18.30;64.40;;;;;;4988345;28;19918;-87
2022/10/17 05:27:08;;;;;;;;;;;18.30;64.50;;;;;;4968755;28;19922;-89
2022/10/17 05:29:34;;;;;;;;;;;18.30;64.60;;;;;;4992086;28;19925;-88
2022/10/17 05:32:00;;;;;;;;;;;18.20;64.60;;;;;;4966140;28;19918;-87
2022/10/17 05:34:26;;;;;;;;;;;18.20;64.80;;;;;;4977981;28;20282;-87
2022/10/17 05:36:51;;;;;;;;;;;18.20;64.80;;;;;;4962589;28;19980;-88
2022/10/17 05:39:18;;;;;;;;;;;18.20;64.90;;;;;;4984178;28;19925;-88
2022/10/17 05:41:44;;;;;;;;;;;18.20;64.90;;;;;;4985906;28;19925;-88
2022/10/17 05:44:10;;;;;;;;;;;18.20;65.00;;;;;;4992436;28;19918;-89
2022/10/17 05:46:35;;;;;;;;;;;18.20;65.20;;;;;;4997833;28;20281;-87
2022/10/17 05:49:01;;;;;;;;;;;18.20;65.10;;;;;;4978313;28;19910;-89
2022/10/17 05:51:26;;;;;;;;;;;18.30;65.40;;;;;;4976651;28;19980;-88
2022/10/17 05:53:52;;;;;;;;;;;18.30;65.70;;;;;;4995222;28;19910;-88
2022/10/17 05:56:19;;;;;;;;;;;18.30;65.90;;;;;;4975324;28;19918;-88
2022/10/17 05:58:45;;;;;;;;;;;18.40;66.00;;;;;;4977771;28;20343;-90
2022/10/17 06:01:11;;;;;;;;;;;18.40;65.90;;;;;;4976997;28;20059;-88
2022/10/17 06:03:37;;;;;;;;;;;18.40;66.00;;;;;;4994093;28;19914;-88
2022/10/17 06:06:03;;;;;;;;;;;18.50;66.10;;;;;;4977629;28;20008;-88
2022/10/17 06:08:29;;;;;;;;;;;18.60;66.20;;;;;;4976655;28;20008;-87
2022/10/17 06:10:54;;;;;;;;;;;18.60;66.10;;;;;;4994011;28;20043;-89
2022/10/17 06:13:21;;;;;;;;;;;18.70;66.00;;;;;;4976832;28;19916;-86
2022/10/17 06:15:47;;;;;;;;;;;18.70;65.90;;;;;;4990631;28;19977;-88
2022/10/17 06:18:12;;;;;;;;;;;18.70;66.00;;;;;;4994023;28;20313;-86
2022/10/17 06:20:38;;;;;;;;;;;18.80;66.00;;;;;;4993535;28;20381;-88
2022/10/17 06:23:04;;;;;;;;;;;18.80;66.00;;;;;;4993940;28;19914;-90
2022/10/17 06:25:32;;;;;;;;;;;18.90;66.10;;;;;;4993213;28;20361;-86
2022/10/17 06:27:58;;;;;;;;;;;19.00;66.20;;;;;;4994395;28;19920;-87
2022/10/17 06:30:23;;;;;;;;;;;19.10;66.30;;;;;;4993194;28;19922;-89
2022/10/17 06:32:50;;;;;;;;;;;19.20;66.40;;;;;;4969421;28;19915;-88
2022/10/17 06:35:16;;;;;;;;;;;19.20;66.50;;;;;;4996494;28;19918;-86
2022/10/17 06:37:42;;;;;;;;;;;19.30;66.60;;;;;;4994615;28;20016;-88
2022/10/17 06:40:09;;;;;;;;;;;19.40;66.60;;;;;;4993407;28;20012;-88
2022/10/17 06:42:34;;;;;;;;;;;19.50;66.60;;;;;;4975812;28;19973;-87
2022/10/17 06:45:00;;;;;;;;;;;19.60;66.70;;;;;;4993250;28;19941;-87
2022/10/17 06:47:26;;;;;;;;;;;19.70;66.80;;;;;;4972583;28;20008;-89
2022/10/17 06:49:51;;;;;;;;;;;19.80;66.90;;;;;;4990409;28;19925;-89
2022/10/17 06:52:17;;;;;;;;;;;19.90;67.20;;;;;;5007332;28;19918;-88
2022/10/17 06:54:43;;;;;;;;;;;20.10;67.70;;;;;;4995006;28;19910;-87
2022/10/17 06:57:08;;;;;;;;;;;20.30;68.00;;;;;;4990485;28;20288;-89
2022/10/17 06:59:34;;;;;;;;;;;20.60;68.40;;;;;;4974291;28;19921;-87
2022/10/17 07:02:00;;;;;;;;;;;20.90;68.50;;;;;;4992743;28;19918;-87
2022/10/17 07:04:26;;;;;;;;;;;21.20;68.70;;;;;;4992023;28;19914;-88
2022/10/17 07:06:51;;;;;;;;;;;21.50;68.70;;;;;;4972096;28;20385;-88
2022/10/17 07:09:17;;;;;;;;;;;21.70;68.40;;;;;;4991736;28;19918;-86
2022/10/17 07:11:43;;;;;;;;;;;21.90;67.80;;;;;;4992083;28;20381;-87
2022/10/17 07:14:09;;;;;;;;;;;22.00;67.40;;;;;;4991567;28;19984;-87
2022/10/17 07:16:34;;;;;;;;;;;22.10;66.90;;;;;;4996052;28;19921;-88
2022/10/17 07:19:00;;;;;;;;;;;22.10;66.70;;;;;;4993340;28;19913;-88
2022/10/17 07:21:25;;;;;;;;;;;22.10;66.60;;;;;;4975375;28;20009;-89
2022/10/17 07:23:54;;;;;;;;;;;22.10;66.60;;;;;;4989659;28;19918;-88
2022/10/17 07:26:20;;;;;;;;;;;22.20;66.70;;;;;;4985559;28;20351;-87
2022/10/17 07:28:46;;;;;;;;;;;22.20;66.80;;;;;;4971126;28;20653;-87
2022/10/17 07:31:13;;;;;;;;;;;22.30;66.80;;;;;;4988846;28;19926;-89
2022/10/17 07:33:39;;;;;;;;;;;22.30;67.00;;;;;;4971729;28;20031;-88
2022/10/17 07:36:05;;;;;;;;;;;22.40;67.10;;;;;;4968723;28;20013;-90
2022/10/17 07:38:31;;;;;;;;;;;22.50;67.10;;;;;;4988800;28;19956;-90
2022/10/17 07:40:58;;;;;;;;;;;22.50;67.00;;;;;;4976834;28;19929;-90
2022/10/17 07:43:24;;;;;;;;;;;22.70;66.60;;;;;;4984454;28;19979;-89
2022/10/17 07:45:50;;;;;;;;;;;22.70;67.00;;;;;;5005018;28;19921;-88
2022/10/17 07:48:16;;;;;;;;;;;22.90;67.50;;;;;;4998143;28;19940;-88
2022/10/17 07:50:41;;;;;;;;;;;23.10;67.80;;;;;;5008090;28;19929;-88
2022/10/17 07:53:07;;;;;;;;;;;23.30;67.70;;;;;;5004796;28;19918;-90
2022/10/17 07:55:34;;;;;;;;;;;23.40;67.60;;;;;;4991267;28;19918;-89
2022/10/17 07:58:00;;;;;;;;;;;23.60;67.50;;;;;;4996983;28;19917;-88
2022/10/17 08:00:26;;;;;;;;;;;23.70;67.10;;;;;;4971275;28;19976;-87
2022/10/17 08:02:51;;;;;;;;;;;23.80;67.20;;;;;;4971385;28;19926;-87
2022/10/17 08:05:17;;;;;;;;;;;24.00;67.40;;;;;;4989167;28;20045;-89
2022/10/17 08:07:42;;;;;;;;;;;24.10;67.30;;;;;;4979663;28;19918;-90
2022/10/17 08:10:10;;;;;;;;;;;24.20;67.40;;;;;;4991985;28;20292;-88
2022/10/17 08:12:35;;;;;;;;;;;24.30;67.60;;;;;;4988617;28;20316;-88
2022/10/17 08:15:01;;;;;;;;;;;24.50;67.50;;;;;;4992152;28;19921;-89
2022/10/17 08:17:27;;;;;;;;;;;24.60;67.30;;;;;;4968192;28;20293;-90
2022/10/17 08:19:53;;;;;;;;;;;24.70;67.20;;;;;;4990592;28;20035;-90
2022/10/17 08:22:18;;;;;;;;;;;24.80;67.00;;;;;;4972896;28;19914;-89
2022/10/17 08:24:45;;;;;;;;;;;24.80;67.10;;;;;;4987945;28;20016;-91
2022/10/17 08:27:12;;;;;;;;;;;25.00;67.20;;;;;;4988650;28;19986;-89
2022/10/17 08:29:38;;;;;;;;;;;25.00;66.90;;;;;;4990030;28;19913;-89
2022/10/17 08:32:05;;;;;;;;;;;25.00;66.90;;;;;;4971191;28;19930;-89
2022/10/17 08:34:33;;;;;;;;;;;25.10;66.90;;;;;;4971069;28;19914;-88
2022/10/17 08:36:59;;;;;;;;;;;25.20;66.90;;;;;;4970549;28;19921;-90
2022/10/17 08:39:25;;;;;;;;;;;25.30;67.10;;;;;;4995684;28;20120;-89
2022/10/17 08:42:09;;;;;;;;;;;25.30;67.40;;;;;;4996773;28;19918;-89
2022/10/17 08:44:48;;;;;;;;;;;25.40;67.30;;;;;;4971886;28;19918;-88
2022/10/17 08:47:24;;;;;;;;;;;25.50;67.40;;;;;;4989231;28;20273;-90
2022/10/17 08:49:56;;;;;;;;;;;25.60;67.80;;;;;;4988861;28;19914;-90
2022/10/17 08:52:21;;;;;;;;;;;25.90;68.90;;;;;;4972727;28;19922;-88
2022/10/17 08:54:48;;;;;;;;;;;26.30;69.80;;;;;;4973860;28;20408;-89
2022/10/17 08:57:14;;;;;;;;;;;26.90;70.30;;;;;;4989285;28;19949;-88
2022/10/17 08:59:40;;;;;;;;;;;27.50;70.20;;;;;;4989266;28;19928;-88
2022/10/17 09:02:25;;;;;;;;;;;27.90;69.60;;;;;;4991514;28;20008;-87
2022/10/17 09:05:10;;;;;;;;;;;28.30;68.80;;;;;;4971148;28;20400;-90
2022/10/17 09:07:42;;;;;;;;;;;28.60;68.00;;;;;;4975225;28;19925;-88
2022/10/17 09:10:16;;;;;;;;;;;28.70;67.00;;;;;;4988715;28;19924;-89
2022/10/17 09:12:47;;;;;;;;;;;28.80;66.20;;;;;;4970134;28;19922;-88
2022/10/17 09:15:34;;;;;;;;;;;28.70;65.70;;;;;;4971555;28;19922;-90
2022/10/17 09:18:02;;;;;;;;;;;28.70;65.90;;;;;;4974387;28;19980;-89
2022/10/17 09:20:33;;;;;;;;;;;28.60;65.70;;;;;;4983042;28;19977;-89
2022/10/17 09:23:18;;;;;;;;;;;28.60;66.10;;;;;;4971054;28;19917;-88
2022/10/17 09:25:45;;;;;;;;;;;28.70;66.30;;;;;;4973064;28;20723;-88
2022/10/17 09:28:14;;;;;;;;;;;28.90;66.90;;;;;;4989532;28;19917;-90
2022/10/17 09:30:49;;;;;;;;;;;29.30;67.00;;;;;;4991280;28;19988;-90
2022/10/17 09:33:24;;;;;;;;;;;29.60;67.20;;;;;;4990895;28;19925;-88
2022/10/17 09:35:50;;;;;;;;;;;30.00;67.20;;;;;;4994542;28;20671;-88
2022/10/17 09:38:19;;;;;;;;;;;30.40;67.00;;;;;;4973928;28;19914;-86
2022/10/17 09:40:50;;;;;;;;;;;30.80;66.80;;;;;;4991941;28;19936;-87
2022/10/17 09:43:17;;;;;;;;;;;31.30;66.70;;;;;;4992295;28;19957;-90
2022/10/17 09:45:57;;;;;;;;;;;31.70;66.00;;;;;;4974780;28;19938;-89
2022/10/17 09:48:25;;;;;;;;;;;32.00;64.30;;;;;;4977481;28;19962;-88
2022/10/17 09:50:51;;;;;;;;;;;32.30;64.40;;;;;;4995483;28;19929;-89
2022/10/17 09:53:22;;;;;;;;;;;32.60;64.60;;;;;;5009306;28;19917;-89
2022/10/17 09:55:57;;;;;;;;;;;33.00;65.00;;;;;;5011106;28;20543;-89
2022/10/17 09:58:22;;;;;;;;;;;33.30;64.20;;;;;;4992344;28;20005;-89
2022/10/17 10:00:48;;;;;;;;;;;33.60;62.00;;;;;;4993511;28;19930;-87
2022/10/17 10:03:24;;;;;;;;;;;33.90;63.10;;;;;;5000932;28;20028;-88
2022/10/17 10:06:11;;;;;;;;;;;34.00;57.00;;;;;;5011233;28;20453;-89
2022/10/17 10:08:50;;;;;;;;;;;34.10;55.10;;;;;;4993625;28;19914;-90
2022/10/17 10:11:16;;;;;;;;;;;34.10;51.00;;;;;;5013259;28;19963;-87
2022/10/17 10:13:42;;;;;;;;;;;34.30;53.50;;;;;;4993083;28;19920;-90
2022/10/17 10:16:19;;;;;;;;;;;34.40;52.60;;;;;;4989033;28;20292;-89
2022/10/17 10:18:45;;;;;;;;;;;34.50;50.70;;;;;;4994611;28;19937;-89
2022/10/17 10:21:15;;;;;;;;;;;34.50;49.40;;;;;;4992237;28;19933;-88
2022/10/17 10:23:42;;;;;;;;;;;34.60;48.30;;;;;;4992471;28;20004;-87
2022/10/17 10:26:43;;;;;;;;;;;34.60;46.90;;;;;;4974496;28;19957;-90
2022/10/17 10:29:17;;;;;;;;;;;34.50;45.60;;;;;;4949455;28;20028;-86
2022/10/17 10:31:43;;;;;;;;;;;34.60;47.40;;;;;;4985812;28;19968;-88
2022/10/17 10:34:23;;;;;;;;;;;34.70;46.10;;;;;;4990056;28;20004;-88
2022/10/17 10:36:55;;;;;;;;;;;34.80;46.40;;;;;;4989567;28;19922;-91
2022/10/17 10:39:26;;;;;;;;;;;34.90;44.50;;;;;;4973001;28;19926;-89
2022/10/17 10:41:52;;;;;;;;;;;35.00;44.20;;;;;;4974729;28;19925;-89
2022/10/17 10:44:20;;;;;;;;;;;35.10;43.70;;;;;;4973468;28;19918;-86
2022/10/17 10:46:45;;;;;;;;;;;35.30;42.20;;;;;;4975302;28;19921;-87
2022/10/17 10:49:31;;;;;;;;;;;35.20;40.60;;;;;;4984647;28;19928;-91
2022/10/17 10:51:58;;;;;;;;;;;35.20;40.90;;;;;;4994642;28;20049;-89
2022/10/17 10:54:26;;;;;;;;;;;35.40;40.00;;;;;;4984227;28;19976;-89
2022/10/17 10:56:53;;;;;;;;;;;35.70;40.10;;;;;;4983094;28;19928;-87
2022/10/17 10:59:19;;;;;;;;;;;35.80;38.20;;;;;;4990156;28;19926;-90
2022/10/17 11:01:44;;;;;;;;;;;35.60;39.20;;;;;;4972251;28;19933;-89
2022/10/17 11:04:26;;;;;;;;;;;35.60;37.90;;;;;;4973512;28;20017;-90
2022/10/17 11:06:54;;;;;;;;;;;35.50;38.40;;;;;;4991160;28;19921;-89
2022/10/17 11:09:23;;;;;;;;;;;35.60;38.40;;;;;;4991390;28;19918;-87
2022/10/17 11:11:53;;;;;;;;;;;35.60;37.90;;;;;;4993490;28;19936;-89
2022/10/17 11:14:22;;;;;;;;;;;35.60;39.00;;;;;;4972432;28;19964;-90
2022/10/17 11:16:55;;;;;;;;;;;35.50;39.30;;;;;;4992408;28;19921;-87
2022/10/17 11:19:24;;;;;;;;;;;35.40;40.20;;;;;;4989815;28;19946;-90
2022/10/17 11:21:58;;;;;;;;;;;35.30;41.10;;;;;;4971716;28;19918;-89
2022/10/17 11:24:26;;;;;;;;;;;35.20;39.80;;;;;;4975864;28;19926;-89
2022/10/17 11:27:12;;;;;;;;;;;35.00;39.10;;;;;;4989328;28;19926;-86
2022/10/17 11:29:39;;;;;;;;;;;34.70;38.70;;;;;;4986387;28;20420;-90
2022/10/17 11:32:25;;;;;;;;;;;34.30;38.60;;;;;;4972825;28;19937;-92
2022/10/17 11:34:55;;;;;;;;;;;34.00;39.10;;;;;;4986997;28;19957;-90
2022/10/17 11:37:22;;;;;;;;;;;33.70;39.10;;;;;;4971662;28;19922;-90
2022/10/17 11:40:02;;;;;;;;;;;33.40;39.50;;;;;;4972512;28;19932;-91
2022/10/17 11:42:40;;;;;;;;;;;33.20;40.20;;;;;;4990217;28;19922;-91
2022/10/17 11:45:12;;;;;;;;;;;33.00;41.20;;;;;;4973057;28;19953;-88
2022/10/17 11:48:04;;;;;;;;;;;32.80;41.50;;;;;;4962103;28;19989;-92
2022/10/17 11:50:33;;;;;;;;;;;32.70;41.90;;;;;;4972042;28;20540;-90
2022/10/17 11:52:58;;;;;;;;;;;32.60;42.20;;;;;;4974324;28;20329;-90
2022/10/17 11:55:26;;;;;;;;;;;32.50;42.30;;;;;;4975071;28;19932;-90
2022/10/17 11:58:12;;;;;;;;;;;32.50;43.30;;;;;;4991182;28;19924;-89
2022/10/17 12:00:53;;;;;;;;;;;32.60;43.50;;;;;;4988262;28;20564;-91
2022/10/17 12:03:18;;;;;;;;;;;32.50;43.00;;;;;;4974197;28;19949;-90
2022/10/17 12:05:53;;;;;;;;;;;32.30;42.50;;;;;;4971045;28;19957;-91
2022/10/17 12:08:21;;;;;;;;;;;32.20;42.70;;;;;;4991745;28;19918;-89
2022/10/17 12:10:47;;;;;;;;;;;32.10;41.70;;;;;;4970365;28;20401;-91
2022/10/17 12:13:28;;;;;;;;;;;32.00;41.80;;;;;;4971606;28;20400;-87
2022/10/17 12:16:00;;;;;;;;;;;31.80;41.70;;;;;;4991585;28;19921;-87
2022/10/17 12:18:29;;;;;;;;;;;31.70;42.10;;;;;;4983067;28;19922;-90
2022/10/17 12:20:55;;;;;;;;;;;31.50;42.40;;;;;;4988955;28;19936;-91
2022/10/17 12:23:28;;;;;;;;;;;31.40;42.10;;;;;;4972428;28;20410;-87
2022/10/17 12:26:00;;;;;;;;;;;31.30;42.50;;;;;;4970587;28;19976;-90
2022/10/17 12:28:27;;;;;;;;;;;31.30;43.10;;;;;;4986220;28;19929;-90
2022/10/17 12:30:55;;;;;;;;;;;31.30;43.30;;;;;;4988942;28;19918;-90
2022/10/17 12:33:27;;;;;;;;;;;31.30;43.40;;;;;;4989600;28;19945;-92
2022/10/17 12:36:12;;;;;;;;;;;31.30;43.10;;;;;;4972067;28;20277;-89
2022/10/17 12:38:38;;;;;;;;;;;31.30;43.20;;;;;;4971119;28;20499;-90
2022/10/17 12:41:06;;;;;;;;;;;31.30;42.50;;;;;;4988436;28;20384;-90
2022/10/17 12:43:36;;;;;;;;;;;31.20;42.60;;;;;;5010271;28;19917;-90
2022/10/17 12:46:03;;;;;;;;;;;31.10;42.30;;;;;;4973885;28;19918;-88
2022/10/17 12:48:48;;;;;;;;;;;31.00;42.60;;;;;;4989045;28;20432;-90
2022/10/17 12:51:16;;;;;;;;;;;30.90;43.00;;;;;;4955849;28;19928;-88
2022/10/17 12:53:49;;;;;;;;;;;30.80;43.10;;;;;;4991428;28;19922;-89
2022/10/17 12:56:22;;;;;;;;;;;30.70;43.20;;;;;;4976594;28;20473;-90
2022/10/17 12:58:49;;;;;;;;;;;30.50;44.00;;;;;;5008572;28;19917;-90
2022/10/17 13:01:21;;;;;;;;;;;30.30;44.90;;;;;;5008250;28;20001;-90
2022/10/17 13:03:48;;;;;;;;;;;30.00;45.70;;;;;;5008102;28;20009;-87
2022/10/17 13:06:18;;;;;;;;;;;29.80;46.50;;;;;;5008023;28;19914;-90
2022/10/17 13:08:45;;;;;;;;;;;29.50;46.50;;;;;;4990521;28;19930;-87
2022/10/17 13:11:12;;;;;;;;;;;29.40;47.10;;;;;;4992299;28;20732;-91
2022/10/17 13:13:38;;;;;;;;;;;29.30;46.50;;;;;;5008052;28;19921;-90
2022/10/17 13:16:03;;;;;;;;;;;29.30;46.30;;;;;;4989200;28;19918;-89
2022/10/17 13:18:32;;;;;;;;;;;29.30;46.40;;;;;;4982173;28;19967;-90
2022/10/17 13:20:57;;;;;;;;;;;29.30;46.60;;;;;;4970936;28;19928;-90
2022/10/17 13:23:24;;;;;;;;;;;29.30;46.00;;;;;;4972630;28;20028;-88
2022/10/17 13:26:05;;;;;;;;;;;29.30;45.70;;;;;;4973662;28;20281;-90
2022/10/17 13:28:31;;;;;;;;;;;29.30;45.80;;;;;;4990783;28;20424;-88
2022/10/17 13:30:57;;;;;;;;;;;29.40;46.10;;;;;;4972140;28;20280;-91
2022/10/17 13:33:48;;;;;;;;;;;29.40;45.30;;;;;;4971731;28;19921;-91
2022/10/17 13:36:14;;;;;;;;;;;29.60;45.50;;;;;;4964734;28;19937;-89
2022/10/17 13:38:40;;;;;;;;;;;29.70;45.60;;;;;;4952275;28;19968;-89
2022/10/17 13:41:10;;;;;;;;;;;29.80;45.30;;;;;;4952410;28;19926;-91
2022/10/17 13:43:35;;;;;;;;;;;29.80;45.20;;;;;;4968828;28;19925;-88
2022/10/17 13:46:04;;;;;;;;;;;29.90;45.20;;;;;;4967061;28;19913;-88
2022/10/17 13:48:30;;;;;;;;;;;30.00;45.10;;;;;;4971939;28;19932;-90
2022/10/17 13:50:58;;;;;;;;;;;30.00;45.00;;;;;;4989137;28;19917;-90
2022/10/17 13:53:30;;;;;;;;;;;30.00;44.30;;;;;;4987645;28;20009;-89
2022/10/17 13:56:00;;;;;;;;;;;30.00;44.40;;;;;;4971898;28;20040;-90
2022/10/17 13:58:28;;;;;;;;;;;30.00;44.10;;;;;;4981782;28;19994;-91
2022/10/17 14:00:55;;;;;;;;;;;30.00;44.00;;;;;;5008595;28;19925;-90
2022/10/17 14:03:23;;;;;;;;;;;30.00;43.40;;;;;;4977357;28;20352;-90
2022/10/17 14:05:59;;;;;;;;;;;29.90;42.80;;;;;;4991488;28;20207;-92
2022/10/17 14:08:25;;;;;;;;;;;29.80;42.90;;;;;;4971441;28;19933;-90
2022/10/17 14:10:50;;;;;;;;;;;29.70;42.60;;;;;;4991124;28;19922;-92
2022/10/17 14:13:19;;;;;;;;;;;29.70;43.10;;;;;;4973760;28;19998;-92
2022/10/17 14:15:45;;;;;;;;;;;29.60;43.50;;;;;;4990169;28;20319;-88
2022/10/17 14:18:17;;;;;;;;;;;29.60;44.00;;;;;;4973209;28;19922;-91
2022/10/17 14:20:47;;;;;;;;;;;29.50;44.10;;;;;;4993264;28;19918;-89
2022/10/17 14:23:31;;;;;;;;;;;29.40;43.80;;;;;;4976758;28;19914;-92
2022/10/17 14:26:12;;;;;;;;;;;29.30;43.70;;;;;;4973407;28;19918;-89